Weather at Marshall County Airport

Public forecast

Using degrees Fahrenheit for public forecast. Weather courtesy of forecast.io.

Current aviation weather report (METAR) for Marshall County Airport

Retrieved 2021/07/24 16:55 UTC (24 minutes ago):

KC75 241655Z AUTO 21009KT 10SM CLR 30/25 A2993 RMK AO2 T03030246

Closest aviation forecast (TAF) to Marshall County Airport

Closest forecast is General Wayne A. Downing Peoria International Airport, 25.5 nm (47.2 km) SSW. Retrieved 2021/07/24 12:22 UTC (5 hours ago):

TAF KPIA 241120Z 2412/2512 21007KT 4SM BR SKC TEMPO 2412/2413 3SM BR FM241400 23011KT P6SM SCT035 BKN250 TEMPO 2423/2502 3SM -TSRA BKN035CB FM250200 25004KT P6SM SCT035 BKN250 FM250900 30004KT 4SM BR SCT035 BKN250